createdAt,value
2022-08-18T00:00:11.010Z,23.05
2022-08-18T00:03:27.273Z,22.99
2022-08-18T00:05:55.939Z,22.94
2022-08-18T00:08:23.165Z,22.93
2022-08-18T00:10:50.384Z,22.91
2022-08-18T00:13:18.267Z,22.87
2022-08-18T00:15:49.212Z,22.83
2022-08-18T00:18:17.145Z,22.78
2022-08-18T00:20:44.640Z,22.74
2022-08-18T00:23:13.428Z,22.71
2022-08-18T00:25:40.694Z,22.68
2022-08-18T00:28:07.863Z,22.62
2022-08-18T00:30:35.124Z,22.59
2022-08-18T00:33:04.135Z,22.55
2022-08-18T00:35:37.739Z,22.52
2022-08-18T00:38:08.362Z,22.45
2022-08-18T00:40:52.436Z,22.43
2022-08-18T00:43:37.258Z,22.40
2022-08-18T00:46:16.438Z,22.36
2022-08-18T00:48:48.851Z,22.32
2022-08-18T00:51:43.327Z,22.30
2022-08-18T00:54:24.009Z,22.27
2022-08-18T00:56:58.584Z,22.25
2022-08-18T00:59:49.353Z,22.19
2022-08-18T01:02:48.201Z,22.14
2022-08-18T01:05:41.086Z,22.09
2022-08-18T01:08:14.598Z,22.03
2022-08-18T01:10:45.288Z,22.03
2022-08-18T01:13:12.675Z,21.99
2022-08-18T01:15:40.477Z,21.93
2022-08-18T01:18:31.311Z,21.90
2022-08-18T01:21:37.229Z,21.86
2022-08-18T01:24:10.185Z,21.80
2022-08-18T01:26:45.672Z,21.75
2022-08-18T01:29:18.910Z,21.73
2022-08-18T01:31:57.193Z,21.69
2022-08-18T01:34:27.505Z,21.66
2022-08-18T01:36:56.028Z,21.65
2022-08-18T01:41:23.420Z,21.60
2022-08-18T01:42:13.993Z,21.59
2022-08-18T01:44:41.859Z,21.53
2022-08-18T01:47:12.675Z,21.48
2022-08-18T01:49:43.715Z,21.44
2022-08-18T01:52:20.274Z,21.42
2022-08-18T01:54:52.105Z,21.38
2022-08-18T01:57:21.607Z,21.36
2022-08-18T01:59:48.834Z,21.31
2022-08-18T02:02:25.366Z,21.27
2022-08-18T02:05:01.557Z,21.24
2022-08-18T02:07:36.116Z,21.21
2022-08-18T02:10:11.880Z,21.18
2022-08-18T02:12:41.194Z,21.13
2022-08-18T02:15:09.952Z,21.10
2022-08-18T02:17:43.285Z,21.05
2022-08-18T02:20:15.440Z,21.00
2022-08-18T02:22:43.850Z,20.98
2022-08-18T02:25:12.900Z,20.96
2022-08-18T02:27:40.279Z,20.92
2022-08-18T02:30:12.762Z,20.90
2022-08-18T02:32:40.566Z,20.85
2022-08-18T02:35:11.666Z,20.84
2022-08-18T02:37:54.396Z,20.81
2022-08-18T02:40:21.955Z,20.78
2022-08-18T02:42:50.111Z,20.72
2022-08-18T02:45:17.405Z,20.69
2022-08-18T02:47:45.553Z,20.65
2022-08-18T02:50:13.949Z,20.62
2022-08-18T02:52:41.356Z,20.58
2022-08-18T02:55:10.304Z,20.58
2022-08-18T02:57:46.942Z,20.54
2022-08-18T03:00:19.670Z,20.51
2022-08-18T03:02:52.155Z,20.46
2022-08-18T03:05:19.925Z,20.44
2022-08-18T03:07:46.980Z,20.43
2022-08-18T03:10:33.132Z,20.38
2022-08-18T03:13:02.323Z,20.35
2022-08-18T03:15:29.698Z,20.31
2022-08-18T03:17:58.225Z,20.29
2022-08-18T03:20:30.504Z,20.26
2022-08-18T03:22:59.331Z,20.21
2022-08-18T03:25:26.589Z,20.19
2022-08-18T03:27:53.734Z,20.14
2022-08-18T03:30:20.851Z,20.11
2022-08-18T03:32:48.056Z,20.08
2022-08-18T03:35:15.205Z,20.07
2022-08-18T03:37:43.104Z,20.06
2022-08-18T03:40:11.181Z,20.02
2022-08-18T03:42:39.119Z,20.03
2022-08-18T03:45:13.419Z,19.99
2022-08-18T03:47:46.030Z,19.96
2022-08-18T03:50:14.103Z,19.94
2022-08-18T03:52:41.862Z,19.91
2022-08-18T03:55:09.465Z,19.91
2022-08-18T03:57:49.220Z,19.87
2022-08-18T04:00:17.987Z,19.85
2022-08-18T04:02:45.251Z,19.84
2022-08-18T04:05:14.094Z,19.83
2022-08-18T04:07:41.302Z,19.82
2022-08-18T04:10:19.072Z,19.82
2022-08-18T04:12:47.130Z,19.79
2022-08-18T04:15:14.498Z,19.81
2022-08-18T04:18:03.105Z,19.79
2022-08-18T04:20:29.919Z,19.81
2022-08-18T04:22:56.989Z,19.81
2022-08-18T04:25:23.989Z,19.82
2022-08-18T04:27:51.719Z,19.83
2022-08-18T04:30:19.013Z,19.86
2022-08-18T04:32:46.087Z,19.88
2022-08-18T04:35:14.259Z,19.89
2022-08-18T04:37:41.816Z,19.90
2022-08-18T04:40:10.779Z,19.90
2022-08-18T04:42:43.493Z,19.92
2022-08-18T04:45:11.045Z,19.93
2022-08-18T04:47:41.701Z,19.95
2022-08-18T04:50:11.182Z,19.99
2022-08-18T04:52:56.654Z,20.03
2022-08-18T04:55:23.994Z,20.10
2022-08-18T04:57:51.112Z,20.14
2022-08-18T05:00:19.591Z,20.21
2022-08-18T05:02:47.020Z,20.26
2022-08-18T05:05:14.122Z,20.33
2022-08-18T05:07:47.593Z,20.41
2022-08-18T05:10:17.582Z,20.49
2022-08-18T05:12:48.069Z,20.59
2022-08-18T05:15:17.707Z,20.69
2022-08-18T05:17:45.329Z,20.81
2022-08-18T05:20:16.775Z,20.95
2022-08-18T05:22:45.699Z,21.10
2022-08-18T05:25:13.415Z,21.25
2022-08-18T05:27:43.694Z,21.43
2022-08-18T05:30:15.344Z,21.59
2022-08-18T05:32:49.260Z,21.76
2022-08-18T05:35:25.054Z,21.94
2022-08-18T05:38:23.973Z,22.12
2022-08-18T05:41:27.771Z,22.41
2022-08-18T05:43:57.361Z,22.70
2022-08-18T05:46:55.085Z,22.90
2022-08-18T05:49:26.211Z,23.07
2022-08-18T05:52:06.399Z,23.27
2022-08-18T05:55:21.161Z,23.56
2022-08-18T05:58:01.918Z,23.73
2022-08-18T06:00:31.349Z,23.98
2022-08-18T06:03:22.140Z,24.14
2022-08-18T06:06:08.335Z,24.46
2022-08-18T06:08:53.948Z,24.72
2022-08-18T06:11:22.433Z,25.04
2022-08-18T06:13:57.754Z,25.35
2022-08-18T06:17:05.758Z,25.62
2022-08-18T06:19:51.376Z,25.74
2022-08-18T06:22:48.185Z,26.07
2022-08-18T06:25:55.371Z,26.31
2022-08-18T06:28:23.100Z,26.56
2022-08-18T06:31:13.771Z,26.73
2022-08-18T06:34:16.611Z,26.96
2022-08-18T06:36:58.755Z,27.31
2022-08-18T06:39:45.256Z,27.55
2022-08-18T06:42:18.010Z,27.70
2022-08-18T06:44:53.002Z,27.95
2022-08-18T06:47:37.610Z,28.15
2022-08-18T06:50:22.266Z,28.28
2022-08-18T06:53:06.989Z,28.42
2022-08-18T06:55:54.337Z,28.71
2022-08-18T06:58:30.420Z,28.91
2022-08-18T07:01:07.089Z,29.04
2022-08-18T07:03:36.924Z,29.23
2022-08-18T07:06:28.038Z,29.43
2022-08-18T07:09:24.218Z,29.73
2022-08-18T07:12:08.154Z,29.89
2022-08-18T07:14:57.555Z,30.11
2022-08-18T07:17:42.433Z,30.24
2022-08-18T07:20:25.842Z,30.39
2022-08-18T07:23:08.348Z,30.81
2022-08-18T07:25:46.758Z,30.86
2022-08-18T07:28:54.103Z,31.14
2022-08-18T07:31:49.031Z,31.25
2022-08-18T07:34:36.560Z,31.29
2022-08-18T07:37:18.561Z,31.51
2022-08-18T07:40:07.120Z,31.80
2022-08-18T07:43:01.630Z,31.81
2022-08-18T07:45:46.944Z,31.92
2022-08-18T07:48:38.145Z,32.03
2022-08-18T07:51:21.253Z,32.21
2022-08-18T07:54:02.542Z,32.21
2022-08-18T07:57:00.031Z,32.05
2022-08-18T07:59:35.347Z,32.03
2022-08-18T08:02:57.620Z,32.51
2022-08-18T08:06:04.608Z,32.53
2022-08-18T08:08:44.805Z,32.56
2022-08-18T08:11:51.277Z,33.09
2022-08-18T08:14:35.751Z,32.82
2022-08-18T08:17:19.080Z,33.18
2022-08-18T08:20:08.738Z,33.36
2022-08-18T08:22:49.349Z,33.51
2022-08-18T08:25:45.871Z,33.38
2022-08-18T08:28:55.853Z,33.49
2022-08-18T08:31:46.014Z,33.60
2022-08-18T08:34:27.141Z,33.47
2022-08-18T08:37:04.537Z,33.61
2022-08-18T08:39:59.265Z,34.05
2022-08-18T08:42:49.126Z,34.20
2022-08-18T08:45:36.951Z,34.59
2022-08-18T08:48:23.165Z,34.40
2022-08-18T08:51:43.175Z,34.71
2022-08-18T08:54:29.458Z,34.41
2022-08-18T08:57:02.442Z,34.15
2022-08-18T08:59:29.913Z,34.40
2022-08-18T09:02:37.835Z,34.75
2022-08-18T09:05:23.861Z,35.17
2022-08-18T09:08:27.007Z,35.40
2022-08-18T09:11:49.623Z,35.67
2022-08-18T09:15:08.909Z,35.77
2022-08-18T09:18:10.829Z,35.60
2022-08-18T09:20:49.542Z,35.92
2022-08-18T09:23:42.571Z,36.00
2022-08-18T09:26:39.272Z,35.75
2022-08-18T09:29:46.543Z,36.06
2022-08-18T09:32:24.104Z,36.31
2022-08-18T09:35:40.017Z,35.72
2022-08-18T09:38:41.313Z,36.24
2022-08-18T09:41:32.954Z,36.29
2022-08-18T09:44:21.681Z,36.53
2022-08-18T09:46:57.406Z,36.73
2022-08-18T09:49:28.003Z,36.80
2022-08-18T09:51:58.352Z,36.52
2022-08-18T09:54:33.932Z,36.54
2022-08-18T09:57:06.218Z,36.73
2022-08-18T09:59:34.345Z,36.85
2022-08-18T10:02:32.440Z,36.87
2022-08-18T10:05:21.270Z,36.98
2022-08-18T10:08:07.755Z,37.04
2022-08-18T10:11:10.264Z,37.04
2022-08-18T10:14:23.417Z,37.09
2022-08-18T10:17:44.611Z,37.18
2022-08-18T10:20:34.792Z,37.47
2022-08-18T10:23:04.432Z,37.55
2022-08-18T10:25:47.854Z,37.75
2022-08-18T10:28:55.873Z,37.77
2022-08-18T10:31:27.421Z,37.76
2022-08-18T10:34:16.374Z,37.38
2022-08-18T10:36:53.329Z,37.37
2022-08-18T10:39:45.422Z,37.07
2022-08-18T10:42:22.512Z,37.23
2022-08-18T10:45:02.378Z,37.52
2022-08-18T10:47:34.268Z,37.77
2022-08-18T10:50:09.705Z,37.58
2022-08-18T10:56:33.029Z,37.39
2022-08-18T11:00:02.013Z,37.48
2022-08-18T11:05:45.012Z,37.80
2022-08-18T11:08:20.687Z,37.70
2022-08-18T11:11:27.778Z,37.82
2022-08-18T11:14:15.675Z,38.08
2022-08-18T11:17:02.243Z,37.97
2022-08-18T11:19:42.031Z,37.89
2022-08-18T11:22:31.565Z,37.64
2022-08-18T11:25:03.337Z,37.71
2022-08-18T11:27:35.852Z,37.87
2022-08-18T11:30:06.728Z,37.86
2022-08-18T11:35:51.685Z,37.85
2022-08-18T11:38:23.305Z,38.02
2022-08-18T11:41:11.760Z,37.94
2022-08-18T11:43:43.065Z,38.04
2022-08-18T11:46:41.552Z,38.17
2022-08-18T11:49:23.998Z,38.36
2022-08-18T11:52:26.075Z,38.00
2022-08-18T11:55:16.938Z,38.21
2022-08-18T12:00:48.766Z,37.81
2022-08-18T12:03:41.673Z,37.99
2022-08-18T12:06:23.592Z,37.78
2022-08-18T12:09:45.489Z,37.99
2022-08-18T12:12:30.546Z,37.22
2022-08-18T12:15:17.464Z,36.81
2022-08-18T12:20:37.541Z,37.84
2022-08-18T12:23:07.011Z,37.83
2022-08-18T12:25:34.016Z,37.83
2022-08-18T12:28:02.515Z,37.35
2022-08-18T12:30:29.731Z,36.68
2022-08-18T12:33:05.627Z,37.15
2022-08-18T12:35:37.587Z,37.06
2022-08-18T12:38:12.544Z,37.20
2022-08-18T12:40:42.203Z,37.13
2022-08-18T12:43:10.532Z,37.01
2022-08-18T12:45:39.127Z,37.21
2022-08-18T12:48:07.711Z,36.80
2022-08-18T12:50:49.650Z,36.75
2022-08-18T12:53:29.062Z,37.22
2022-08-18T12:55:58.318Z,36.80
2022-08-18T12:58:25.823Z,36.83
2022-08-18T13:00:52.970Z,36.31
2022-08-18T13:03:20.567Z,36.83
2022-08-18T13:05:48.082Z,37.16
2022-08-18T13:08:30.127Z,37.00
2022-08-18T13:11:00.423Z,36.76
2022-08-18T13:13:42.959Z,36.19
2022-08-18T13:16:16.230Z,36.21
2022-08-18T13:18:45.334Z,36.39
2022-08-18T13:21:18.021Z,35.74
2022-08-18T13:23:45.578Z,36.39
2022-08-18T13:26:28.394Z,36.66
2022-08-18T13:28:59.271Z,36.47
2022-08-18T13:31:27.458Z,36.60
2022-08-18T13:34:04.120Z,36.32
2022-08-18T13:36:44.446Z,36.28
2022-08-18T13:39:17.204Z,35.74
2022-08-18T13:41:46.318Z,35.70
2022-08-18T13:44:18.585Z,36.39
2022-08-18T13:46:48.458Z,36.24
2022-08-18T13:49:23.827Z,36.67
2022-08-18T13:52:01.016Z,36.76
2022-08-18T13:54:34.094Z,36.78
2022-08-18T13:57:04.887Z,37.19
2022-08-18T13:59:34.253Z,37.55
2022-08-18T14:02:08.384Z,37.35
2022-08-18T14:04:38.620Z,37.27
2022-08-18T14:07:10.509Z,37.29
2022-08-18T14:09:39.410Z,36.93
2022-08-18T14:12:28.243Z,36.94
2022-08-18T14:14:58.493Z,36.80
2022-08-18T14:17:26.834Z,36.89
2022-08-18T14:20:15.353Z,37.04
2022-08-18T14:23:21.786Z,35.56
2022-08-18T14:26:13.808Z,36.57
2022-08-18T14:28:41.587Z,36.53
2022-08-18T14:31:09.068Z,36.86
2022-08-18T14:33:50.326Z,36.70
2022-08-18T14:36:20.527Z,36.67
2022-08-18T14:38:59.319Z,36.78
2022-08-18T14:41:27.397Z,37.21
2022-08-18T14:44:12.999Z,37.09
2022-08-18T14:46:52.288Z,37.00
2022-08-18T14:49:28.660Z,36.84
2022-08-18T14:51:59.531Z,36.67
2022-08-18T14:54:30.139Z,36.36
2022-08-18T14:57:02.646Z,36.59
2022-08-18T14:59:30.946Z,36.86
2022-08-18T15:02:07.685Z,36.90
2022-08-18T15:04:52.953Z,36.56
2022-08-18T15:07:25.797Z,35.98
2022-08-18T15:10:15.051Z,36.04
2022-08-18T15:12:41.136Z,36.52
2022-08-18T15:15:13.022Z,36.08
2022-08-18T15:17:52.440Z,36.11
2022-08-18T15:20:29.633Z,35.65
2022-08-18T15:23:27.972Z,35.99
2022-08-18T15:25:56.684Z,35.99
2022-08-18T15:28:27.867Z,35.65
2022-08-18T15:33:42.772Z,35.81
2022-08-18T15:36:10.557Z,35.99
2022-08-18T15:38:43.908Z,35.97
2022-08-18T15:41:31.397Z,35.98
2022-08-18T15:43:59.195Z,36.12
2022-08-18T15:46:27.037Z,35.86
2022-08-18T15:48:55.774Z,35.89
2022-08-18T15:51:23.212Z,35.81
2022-08-18T15:53:50.925Z,35.89
2022-08-18T15:56:22.822Z,35.81
2022-08-18T15:58:53.604Z,35.61
2022-08-18T16:01:30.336Z,35.64
2022-08-18T16:04:01.369Z,35.70
2022-08-18T16:06:32.483Z,35.44
2022-08-18T16:09:01.505Z,35.07
2022-08-18T16:11:29.978Z,34.76
2022-08-18T16:14:02.471Z,34.51
2022-08-18T16:16:35.807Z,34.20
2022-08-18T16:19:08.398Z,34.31
2022-08-18T16:21:39.862Z,34.09
2022-08-18T16:24:08.205Z,34.20
2022-08-18T16:26:35.549Z,34.48
2022-08-18T16:29:03.479Z,34.70
2022-08-18T16:31:30.583Z,34.80
2022-08-18T16:33:58.270Z,34.78
2022-08-18T16:36:26.406Z,34.54
2022-08-18T16:38:58.113Z,34.22
2022-08-18T16:41:26.681Z,34.10
2022-08-18T16:43:54.585Z,34.33
2022-08-18T16:46:26.957Z,34.51
2022-08-18T16:48:57.335Z,34.50
2022-08-18T16:51:27.947Z,34.53
2022-08-18T16:53:55.482Z,34.46
2022-08-18T16:56:27.658Z,34.32
2022-08-18T16:59:14.974Z,34.11
2022-08-18T17:02:02.030Z,34.04
2022-08-18T17:04:35.293Z,34.01
2022-08-18T17:07:05.401Z,34.00
2022-08-18T17:09:34.314Z,33.94
2022-08-18T17:12:02.521Z,33.76
2022-08-18T17:14:32.548Z,33.56
2022-08-18T17:17:00.669Z,33.41
2022-08-18T17:19:33.664Z,33.34
2022-08-18T17:22:05.089Z,33.27
2022-08-18T17:24:33.151Z,33.18
2022-08-18T17:27:26.095Z,33.04
2022-08-18T17:30:16.072Z,32.76
2022-08-18T17:33:05.863Z,32.60
2022-08-18T17:35:46.258Z,32.42
2022-08-18T17:38:40.427Z,32.36
2022-08-18T17:41:07.897Z,32.35
2022-08-18T17:46:30.537Z,32.23
2022-08-18T17:49:16.141Z,32.06
2022-08-18T17:51:52.463Z,31.95
2022-08-18T17:54:49.413Z,31.90
2022-08-18T17:57:32.611Z,31.81
2022-08-18T18:00:11.301Z,31.69
2022-08-18T18:02:46.451Z,31.60
2022-08-18T18:05:19.139Z,31.51
2022-08-18T18:07:52.488Z,31.43
2022-08-18T18:11:04.484Z,31.31
2022-08-18T18:13:33.130Z,31.15
2022-08-18T18:16:21.223Z,31.07
2022-08-18T18:19:03.304Z,31.01
2022-08-18T18:22:00.393Z,30.89
2022-08-18T18:24:34.425Z,30.75
2022-08-18T18:27:02.448Z,30.65
2022-08-18T18:29:37.698Z,30.47
2022-08-18T18:33:13.485Z,30.38
2022-08-18T18:35:50.082Z,30.33
2022-08-18T18:38:24.319Z,30.30
2022-08-18T18:41:03.869Z,30.26
2022-08-18T18:43:39.350Z,30.18
2022-08-18T18:46:22.852Z,30.05
2022-08-18T18:49:19.088Z,29.98
2022-08-18T18:52:02.684Z,29.92
2022-08-18T18:54:49.647Z,29.84
2022-08-18T18:57:30.077Z,29.80
2022-08-18T19:00:18.346Z,29.74
2022-08-18T19:03:09.314Z,29.66
2022-08-18T19:06:14.035Z,29.54
2022-08-18T19:09:05.912Z,29.43
2022-08-18T19:11:47.845Z,29.38
2022-08-18T19:14:21.888Z,29.36
2022-08-18T19:17:14.825Z,29.31
2022-08-18T19:19:50.039Z,29.21
2022-08-18T19:22:34.340Z,29.11
2022-08-18T19:25:19.238Z,28.95
2022-08-18T19:28:28.658Z,28.92
2022-08-18T19:31:00.217Z,28.80
2022-08-18T19:33:41.798Z,28.74
2022-08-18T19:36:28.207Z,28.57
2022-08-18T19:39:26.017Z,28.51
2022-08-18T19:42:15.225Z,28.31
2022-08-18T19:45:15.483Z,28.08
2022-08-18T19:48:18.229Z,28.04
2022-08-18T19:51:05.422Z,28.03
2022-08-18T19:53:52.650Z,27.86
2022-08-18T19:56:56.305Z,27.80
2022-08-18T19:59:57.631Z,27.74
2022-08-18T20:02:48.994Z,27.65
2022-08-18T20:06:36.084Z,27.59
2022-08-18T20:09:42.139Z,27.64
2022-08-18T20:12:20.800Z,27.62
2022-08-18T20:15:16.514Z,27.59
2022-08-18T20:18:04.626Z,27.56
2022-08-18T20:20:38.129Z,27.54
2022-08-18T20:23:33.383Z,27.52
2022-08-18T20:26:00.834Z,27.51
2022-08-18T20:28:39.911Z,27.49
2022-08-18T20:31:14.154Z,27.42
2022-08-18T20:34:14.394Z,27.32
2022-08-18T20:36:45.338Z,27.22
2022-08-18T20:39:40.820Z,27.13
2022-08-18T20:42:37.766Z,27.06
2022-08-18T20:45:29.418Z,26.98
2022-08-18T20:48:29.580Z,26.92
2022-08-18T20:51:15.625Z,26.75
2022-08-18T20:53:52.420Z,26.74
2022-08-18T20:56:43.606Z,26.72
2022-08-18T20:59:32.373Z,26.66
2022-08-18T21:02:22.955Z,26.48
